createdAt,value
2023-01-18T00:01:04.322Z,9.07
2023-01-18T00:03:33.371Z,9.98
2023-01-18T00:06:05.648Z,9.13
2023-01-18T00:08:34.493Z,9.20
2023-01-18T00:11:13.762Z,9.55
2023-01-18T00:13:40.474Z,9.73
2023-01-18T00:16:11.412Z,10.48
2023-01-18T00:18:38.274Z,9.50
2023-01-18T00:21:10.210Z,9.82
2023-01-18T00:23:37.557Z,8.85
2023-01-18T00:26:09.988Z,9.23
2023-01-18T00:28:37.805Z,8.63
2023-01-18T00:31:12.067Z,9.68
2023-01-18T00:33:38.770Z,10.52
2023-01-18T00:36:05.684Z,9.57
2023-01-18T00:38:32.472Z,9.10
2023-01-18T00:40:59.100Z,9.82
2023-01-18T00:43:40.943Z,9.05
2023-01-18T00:46:21.949Z,9.25
2023-01-18T00:48:49.514Z,8.43
2023-01-18T00:51:19.931Z,9.20
2023-01-18T00:53:47.283Z,8.38
2023-01-18T00:56:17.241Z,9.52
2023-01-18T00:58:44.323Z,10.02
2023-01-18T01:01:12.058Z,9.27
2023-01-18T01:03:57.472Z,10.30
2023-01-18T01:06:47.054Z,10.23
2023-01-18T01:09:28.728Z,10.10
2023-01-18T01:12:15.896Z,10.60
2023-01-18T01:15:05.548Z,9.45
2023-01-18T01:17:53.596Z,9.52
2023-01-18T01:20:39.898Z,10.38
2023-01-18T01:23:30.412Z,9.05
2023-01-18T01:26:07.689Z,9.77
2023-01-18T01:28:39.789Z,10.50
2023-01-18T01:31:09.047Z,10.02
2023-01-18T01:33:36.734Z,10.88
2023-01-18T01:36:06.951Z,10.13
2023-01-18T01:38:33.937Z,10.18
2023-01-18T01:41:03.057Z,9.27
2023-01-18T01:43:40.309Z,10.13
2023-01-18T01:46:29.231Z,9.98
2023-01-18T01:49:17.612Z,10.60
2023-01-18T01:51:48.253Z,10.88
2023-01-18T01:54:20.959Z,10.55
2023-01-18T01:56:49.507Z,9.57
2023-01-18T01:59:17.055Z,9.48
2023-01-18T02:01:44.419Z,9.73
2023-01-18T02:04:11.996Z,9.82
2023-01-18T02:06:39.671Z,11.05
2023-01-18T02:09:13.670Z,9.82
2023-01-18T02:11:42.373Z,11.27
2023-01-18T02:14:12.833Z,10.57
2023-01-18T02:17:13.447Z,10.60
2023-01-18T02:20:19.351Z,9.68
2023-01-18T02:23:24.401Z,9.85
2023-01-18T02:26:31.614Z,11.00
2023-01-18T02:29:19.155Z,9.15
2023-01-18T02:32:04.372Z,10.65
2023-01-18T02:34:42.989Z,8.60
2023-01-18T02:37:22.598Z,10.07
2023-01-18T02:40:27.899Z,10.95
2023-01-18T02:43:37.397Z,9.35
2023-01-18T02:46:28.897Z,9.93
2023-01-18T02:48:56.952Z,10.02
2023-01-18T02:51:24.846Z,10.00
2023-01-18T02:53:51.746Z,9.38
2023-01-18T02:56:31.501Z,11.13
2023-01-18T02:59:05.854Z,9.70
2023-01-18T03:01:43.953Z,9.07
2023-01-18T03:04:17.698Z,10.70
2023-01-18T03:06:48.614Z,10.40
2023-01-18T03:09:21.387Z,10.55
2023-01-18T03:11:57.643Z,10.35
2023-01-18T03:17:22.323Z,8.55
2023-01-18T03:20:07.281Z,9.52
2023-01-18T03:23:36.424Z,8.57
2023-01-18T03:26:06.060Z,9.00
2023-01-18T03:29:01.754Z,9.40
2023-01-18T03:31:47.113Z,10.13
2023-01-18T03:34:27.286Z,9.02
2023-01-18T03:36:56.196Z,8.75
2023-01-18T03:39:33.903Z,10.27
2023-01-18T03:42:06.607Z,10.35
2023-01-18T03:44:41.448Z,10.00
2023-01-18T03:47:08.460Z,10.27
2023-01-18T03:49:35.761Z,9.68
2023-01-18T03:52:24.121Z,9.50
2023-01-18T03:55:05.755Z,9.23
2023-01-18T03:57:41.207Z,8.88
2023-01-18T04:00:09.708Z,9.48
2023-01-18T04:02:37.209Z,10.43
2023-01-18T04:05:05.586Z,9.48
2023-01-18T04:07:32.862Z,9.82
2023-01-18T04:10:00.363Z,10.05
2023-01-18T04:12:27.254Z,9.15
2023-01-18T04:14:53.926Z,9.15
2023-01-18T04:17:20.660Z,9.18
2023-01-18T04:19:47.326Z,9.02
2023-01-18T04:22:14.643Z,9.25
2023-01-18T04:24:41.400Z,9.55
2023-01-18T04:27:08.291Z,10.65
2023-01-18T04:29:35.225Z,9.43
2023-01-18T04:32:02.338Z,9.57
2023-01-18T04:34:29.092Z,9.48
2023-01-18T04:36:55.774Z,9.40
2023-01-18T04:39:22.438Z,9.70
2023-01-18T04:41:49.192Z,10.38
2023-01-18T04:44:16.097Z,8.93
2023-01-18T04:46:43.013Z,10.20
2023-01-18T04:49:15.404Z,9.15
2023-01-18T04:51:43.802Z,9.85
2023-01-18T04:54:11.920Z,9.43
2023-01-18T04:56:38.648Z,8.77
2023-01-18T04:59:05.349Z,9.85
2023-01-18T05:01:33.296Z,8.27
2023-01-18T05:04:00.017Z,9.35
2023-01-18T05:06:27.152Z,9.18
2023-01-18T05:08:53.818Z,10.32
2023-01-18T05:11:23.183Z,9.07
2023-01-18T05:13:50.056Z,9.30
2023-01-18T05:16:19.874Z,9.65
2023-01-18T05:18:46.720Z,9.35
2023-01-18T05:21:14.045Z,8.60
2023-01-18T05:23:41.201Z,9.00
2023-01-18T05:26:19.011Z,9.45
2023-01-18T05:28:45.871Z,9.27
2023-01-18T05:31:14.694Z,9.18
2023-01-18T05:33:42.024Z,9.23
2023-01-18T05:36:09.090Z,9.68
2023-01-18T05:38:35.975Z,9.63
2023-01-18T05:41:03.090Z,10.32
2023-01-18T05:43:30.323Z,9.55
2023-01-18T05:45:57.587Z,10.57
2023-01-18T05:48:24.853Z,9.20
2023-01-18T05:50:51.627Z,10.77
2023-01-18T05:53:20.829Z,9.80
2023-01-18T05:55:59.309Z,10.40
2023-01-18T05:58:27.437Z,10.43
2023-01-18T06:00:55.081Z,9.20
2023-01-18T06:03:22.438Z,9.57
2023-01-18T06:05:51.260Z,9.65
2023-01-18T06:08:19.123Z,9.75
2023-01-18T06:10:53.397Z,10.70
2023-01-18T06:13:20.989Z,10.98
2023-01-18T06:15:49.585Z,9.25
2023-01-18T06:18:16.431Z,9.55
2023-01-18T06:20:43.123Z,9.57
2023-01-18T06:23:10.204Z,11.30
2023-01-18T06:25:37.007Z,10.75
2023-01-18T06:28:05.034Z,10.75
2023-01-18T06:30:32.419Z,10.38
2023-01-18T06:33:04.717Z,9.32
2023-01-18T06:35:31.473Z,9.60
2023-01-18T06:37:58.100Z,9.23
2023-01-18T06:40:24.594Z,9.93
2023-01-18T06:42:51.803Z,9.48
2023-01-18T06:45:21.850Z,9.00
2023-01-18T06:47:49.295Z,9.65
2023-01-18T06:50:16.587Z,10.27
2023-01-18T06:52:43.998Z,10.07
2023-01-18T06:55:11.918Z,8.27
2023-01-18T06:57:38.613Z,8.93
2023-01-18T07:00:06.509Z,9.00
2023-01-18T07:02:33.980Z,9.30
2023-01-18T07:05:00.505Z,9.15
2023-01-18T07:07:27.348Z,8.88
2023-01-18T07:10:04.211Z,9.35
2023-01-18T07:12:30.719Z,9.50
2023-01-18T07:14:57.656Z,8.57
2023-01-18T07:17:24.191Z,10.00
2023-01-18T07:19:51.413Z,9.88
2023-01-18T07:22:17.962Z,9.13
2023-01-18T07:24:44.471Z,9.85
2023-01-18T07:27:11.041Z,9.77
2023-01-18T07:29:37.548Z,10.10
2023-01-18T07:32:04.452Z,9.73
2023-01-18T07:34:30.993Z,9.18
2023-01-18T07:36:57.545Z,8.48
2023-01-18T07:39:24.036Z,10.57
2023-01-18T07:41:50.568Z,9.25
2023-01-18T07:44:17.037Z,7.85
2023-01-18T07:46:43.588Z,9.55
2023-01-18T07:49:10.083Z,8.60
2023-01-18T07:51:36.703Z,8.07
2023-01-18T07:54:03.260Z,8.80
2023-01-18T07:56:29.813Z,8.65
2023-01-18T07:58:56.394Z,9.07
2023-01-18T08:01:23.841Z,9.00
2023-01-18T08:03:50.996Z,8.95
2023-01-18T08:06:25.483Z,9.20
2023-01-18T08:08:53.930Z,9.20
2023-01-18T08:11:20.519Z,9.45
2023-01-18T08:13:49.058Z,8.60
2023-01-18T08:16:16.275Z,9.90
2023-01-18T08:18:45.083Z,9.25
2023-01-18T08:21:13.057Z,9.63
2023-01-18T08:23:39.706Z,9.68
2023-01-18T08:26:07.410Z,10.18
2023-01-18T08:28:34.351Z,9.25
2023-01-18T08:31:07.223Z,9.85
2023-01-18T08:33:37.112Z,9.18
2023-01-18T08:36:04.149Z,9.90
2023-01-18T08:38:30.887Z,9.40
2023-01-18T08:40:57.651Z,9.15
2023-01-18T08:43:24.721Z,10.20
2023-01-18T08:45:51.447Z,8.98
2023-01-18T08:48:18.120Z,9.20
2023-01-18T08:50:45.918Z,9.18
2023-01-18T08:53:13.293Z,9.90
2023-01-18T08:55:40.491Z,9.80
2023-01-18T08:58:07.256Z,9.73
2023-01-18T09:00:33.975Z,10.52
2023-01-18T09:03:02.636Z,11.18
2023-01-18T09:05:29.837Z,9.95
2023-01-18T09:07:57.709Z,9.60
2023-01-18T09:10:24.562Z,10.48
2023-01-18T09:12:52.948Z,10.15
2023-01-18T09:15:20.401Z,10.57
2023-01-18T09:17:47.086Z,10.30
2023-01-18T09:20:13.803Z,10.30
2023-01-18T09:22:42.710Z,10.75
2023-01-18T09:25:10.479Z,10.88
2023-01-18T09:27:37.252Z,12.02
2023-01-18T09:30:05.740Z,10.73
2023-01-18T09:32:32.423Z,11.00
2023-01-18T09:34:59.204Z,10.50
2023-01-18T09:37:25.990Z,11.30
2023-01-18T09:39:52.909Z,10.45
2023-01-18T09:42:22.756Z,10.70
2023-01-18T09:44:53.479Z,10.40
2023-01-18T09:47:25.256Z,9.93
2023-01-18T09:49:57.390Z,9.70
2023-01-18T09:52:40.818Z,10.63
2023-01-18T09:55:19.730Z,10.07
2023-01-18T09:58:07.363Z,9.95
2023-01-18T10:00:39.677Z,10.55
2023-01-18T10:03:23.583Z,11.05
2023-01-18T10:06:08.394Z,10.52
2023-01-18T10:08:51.026Z,11.43
2023-01-18T10:11:30.006Z,11.15
2023-01-18T10:14:05.238Z,10.30
2023-01-18T10:16:34.492Z,9.68
2023-01-18T10:19:01.679Z,9.23
2023-01-18T10:21:49.249Z,9.93
2023-01-18T10:24:49.825Z,10.57
2023-01-18T10:27:29.589Z,10.15
2023-01-18T10:30:15.173Z,10.77
2023-01-18T10:32:55.545Z,11.15
2023-01-18T10:35:34.784Z,10.15
2023-01-18T10:38:07.346Z,10.43
2023-01-18T10:40:36.349Z,11.40
2023-01-18T10:43:04.645Z,10.75
2023-01-18T10:45:34.528Z,10.32
2023-01-18T10:48:20.500Z,10.80
2023-01-18T10:50:52.337Z,10.65
2023-01-18T10:53:36.980Z,11.60
2023-01-18T10:56:09.683Z,11.05
2023-01-18T10:58:54.335Z,11.32
2023-01-18T11:01:29.666Z,10.43
2023-01-18T11:03:58.426Z,10.82
2023-01-18T11:06:26.323Z,11.43
2023-01-18T11:08:53.912Z,9.82
2023-01-18T11:11:46.366Z,10.98
2023-01-18T11:14:31.021Z,11.15
2023-01-18T11:17:03.561Z,10.23
2023-01-18T11:19:30.615Z,10.10
2023-01-18T11:21:57.176Z,10.45
2023-01-18T11:24:28.716Z,9.82
2023-01-18T11:27:04.267Z,10.65
2023-01-18T11:29:42.651Z,10.65
2023-01-18T11:32:30.858Z,10.07
2023-01-18T11:34:59.959Z,10.30
2023-01-18T11:37:39.522Z,10.15
2023-01-18T11:40:33.499Z,10.10
2023-01-18T11:43:25.656Z,9.10
2023-01-18T11:46:27.517Z,9.30
2023-01-18T11:49:07.380Z,9.25
2023-01-18T11:51:39.883Z,9.38
2023-01-18T11:54:22.563Z,9.43
2023-01-18T11:56:51.425Z,8.23
2023-01-18T11:59:24.080Z,8.13
2023-01-18T12:02:30.141Z,8.82
2023-01-18T12:05:33.979Z,9.52
2023-01-18T12:08:48.459Z,8.55
2023-01-18T12:11:22.689Z,8.25
2023-01-18T12:14:16.340Z,8.40
2023-01-18T12:17:11.924Z,7.35
2023-01-18T12:19:51.488Z,9.27
2023-01-18T12:22:38.392Z,8.43
2023-01-18T12:25:20.557Z,9.60
2023-01-18T12:28:04.823Z,8.35
2023-01-18T12:30:57.737Z,8.65
2023-01-18T12:33:43.479Z,8.98
2023-01-18T12:36:16.463Z,8.82
2023-01-18T12:38:55.282Z,8.23
2023-01-18T12:41:40.359Z,9.10
2023-01-18T12:44:25.484Z,8.95
2023-01-18T12:46:59.222Z,8.68
2023-01-18T12:49:29.767Z,7.82
2023-01-18T12:52:17.216Z,8.35
2023-01-18T12:54:48.818Z,8.13
2023-01-18T12:57:17.130Z,8.57
2023-01-18T12:59:59.579Z,8.80
2023-01-18T13:05:07.103Z,7.82
2023-01-18T13:07:45.418Z,8.13
2023-01-18T13:10:27.055Z,7.72
2023-01-18T13:12:55.969Z,7.75
2023-01-18T13:16:02.058Z,8.20
2023-01-18T13:18:59.531Z,6.95
2023-01-18T13:21:43.903Z,7.47
2023-01-18T13:24:22.719Z,7.13
2023-01-18T13:26:49.533Z,7.28
2023-01-18T13:29:32.025Z,8.18
2023-01-18T13:32:00.171Z,7.68
2023-01-18T13:34:48.113Z,7.65
2023-01-18T13:37:37.672Z,7.38
2023-01-18T13:40:04.659Z,7.63
2023-01-18T13:42:38.072Z,8.10
2023-01-18T13:45:14.357Z,7.65
2023-01-18T13:47:46.878Z,7.88
2023-01-18T13:50:28.493Z,7.38
2023-01-18T13:53:13.101Z,7.18
2023-01-18T13:55:41.589Z,7.70
2023-01-18T13:58:38.605Z,7.93
2023-01-18T14:01:07.830Z,7.50
2023-01-18T14:03:38.643Z,7.57
2023-01-18T14:06:10.319Z,7.80
2023-01-18T14:08:39.844Z,7.72
2023-01-18T14:11:10.056Z,7.53
2023-01-18T14:13:45.839Z,7.20
2023-01-18T14:16:23.603Z,7.20
2023-01-18T14:19:17.164Z,7.50
2023-01-18T14:21:56.124Z,6.82
2023-01-18T14:24:51.307Z,8.07
2023-01-18T14:27:22.320Z,8.25
2023-01-18T14:29:55.156Z,7.57
2023-01-18T14:32:27.977Z,9.02
2023-01-18T14:34:59.944Z,9.05
2023-01-18T14:37:29.497Z,8.63
2023-01-18T14:40:24.263Z,7.53
2023-01-18T14:45:35.387Z,9.77
2023-01-18T14:48:09.769Z,8.70
2023-01-18T14:50:40.911Z,8.95
2023-01-18T14:53:16.917Z,9.20
2023-01-18T14:55:43.466Z,7.28
2023-01-18T14:58:15.974Z,11.93
2023-01-18T15:00:49.824Z,18.88
2023-01-18T15:03:28.652Z,14.73
2023-01-18T15:06:06.878Z,14.63
2023-01-18T15:08:34.590Z,15.52
2023-01-18T15:11:05.006Z,15.10
2023-01-18T15:13:34.950Z,16.25
2023-01-18T15:18:29.881Z,15.52
2023-01-18T15:21:02.548Z,16.48
2023-01-18T15:23:30.034Z,16.27
2023-01-18T15:25:57.442Z,15.82
2023-01-18T15:28:31.547Z,13.60
2023-01-18T15:30:58.098Z,13.15
2023-01-18T15:33:27.330Z,11.23
2023-01-18T15:36:00.883Z,10.18
2023-01-18T15:38:28.135Z,10.45
2023-01-18T15:41:02.492Z,9.25
2023-01-18T15:43:33.545Z,7.28
2023-01-18T15:46:10.615Z,7.15
2023-01-18T15:48:53.267Z,7.85
2023-01-18T15:51:43.120Z,6.80
2023-01-18T15:54:17.928Z,7.57
2023-01-18T15:56:45.831Z,6.88
2023-01-18T15:59:19.005Z,6.30
2023-01-18T16:01:49.362Z,6.13
2023-01-18T16:04:22.651Z,5.55
2023-01-18T16:06:49.329Z,6.03
2023-01-18T16:09:16.011Z,5.82
2023-01-18T16:11:51.745Z,5.80
2023-01-18T16:14:56.811Z,5.43
2023-01-18T16:17:24.362Z,5.60
2023-01-18T16:19:54.183Z,5.82
2023-01-18T16:22:24.789Z,6.13
2023-01-18T16:25:01.317Z,6.53
2023-01-18T16:27:31.034Z,6.20
2023-01-18T16:30:19.312Z,6.63
2023-01-18T16:32:46.411Z,5.68
2023-01-18T16:35:16.710Z,5.45
2023-01-18T16:37:46.894Z,6.35
2023-01-18T16:40:17.264Z,5.82
2023-01-18T16:43:04.817Z,6.70
2023-01-18T16:45:36.984Z,6.55
2023-01-18T16:48:05.156Z,7.18
2023-01-18T16:50:32.505Z,7.38
2023-01-18T16:52:59.219Z,6.90
2023-01-18T16:55:25.963Z,7.15
2023-01-18T16:57:52.693Z,7.70
2023-01-18T17:00:22.337Z,7.32
2023-01-18T17:02:49.593Z,8.60
2023-01-18T17:05:16.700Z,7.80
2023-01-18T17:07:44.221Z,7.82
2023-01-18T17:10:36.040Z,8.50
2023-01-18T17:13:02.988Z,7.35
2023-01-18T17:15:32.373Z,7.53
2023-01-18T17:17:59.060Z,8.07
2023-01-18T17:20:27.186Z,8.90
2023-01-18T17:22:55.551Z,8.20
2023-01-18T17:25:23.327Z,7.50
2023-01-18T17:27:50.413Z,7.40
2023-01-18T17:30:21.061Z,7.40
2023-01-18T17:32:48.483Z,7.03
2023-01-18T17:35:17.659Z,7.13
2023-01-18T17:37:45.470Z,8.77
2023-01-18T17:40:22.539Z,7.93
2023-01-18T17:42:51.673Z,8.05
2023-01-18T17:45:18.473Z,7.88
2023-01-18T17:47:45.276Z,8.38
2023-01-18T17:50:15.468Z,8.38
2023-01-18T17:52:42.166Z,7.70
2023-01-18T17:55:15.162Z,7.38
2023-01-18T17:57:43.016Z,7.10
2023-01-18T18:00:13.461Z,6.63
2023-01-18T18:02:40.945Z,7.57
2023-01-18T18:05:09.369Z,7.30
2023-01-18T18:07:36.297Z,7.70
2023-01-18T18:10:04.715Z,8.23
2023-01-18T18:12:33.042Z,7.57
2023-01-18T18:15:00.143Z,7.88
2023-01-18T18:17:28.601Z,8.23
2023-01-18T18:19:55.382Z,7.03
2023-01-18T18:22:22.224Z,7.55
2023-01-18T18:24:49.938Z,8.20
2023-01-18T18:27:17.450Z,8.02
2023-01-18T18:29:44.737Z,7.78
2023-01-18T18:32:12.757Z,8.40
2023-01-18T18:34:39.333Z,8.35
2023-01-18T18:37:06.227Z,7.55
2023-01-18T18:39:33.276Z,8.85
2023-01-18T18:42:00.264Z,7.97
2023-01-18T18:44:27.461Z,7.95
2023-01-18T18:46:53.956Z,9.55
2023-01-18T18:49:20.446Z,7.88
2023-01-18T18:51:46.921Z,9.07
2023-01-18T18:54:13.445Z,9.10
2023-01-18T18:56:40.140Z,8.52
2023-01-18T18:59:06.600Z,8.02
2023-01-18T19:01:33.235Z,8.25
2023-01-18T19:04:00.180Z,8.70
2023-01-18T19:06:26.952Z,8.52
2023-01-18T19:08:53.883Z,7.78
2023-01-18T19:11:20.779Z,8.13
2023-01-18T19:13:49.338Z,7.95
2023-01-18T19:16:17.294Z,8.63
2023-01-18T19:18:43.876Z,9.07
2023-01-18T19:21:10.395Z,7.90
2023-01-18T19:23:36.923Z,8.48
2023-01-18T19:26:03.896Z,8.27
2023-01-18T19:28:30.835Z,7.90
2023-01-18T19:31:02.482Z,8.00
2023-01-18T19:33:29.172Z,9.38
2023-01-18T19:35:55.899Z,8.30
2023-01-18T19:38:22.632Z,7.55
2023-01-18T19:40:49.216Z,8.73
2023-01-18T19:43:15.699Z,8.65
2023-01-18T19:45:42.225Z,8.23
2023-01-18T19:48:08.712Z,8.73
2023-01-18T19:50:35.239Z,7.88
2023-01-18T19:53:02.094Z,8.75
2023-01-18T19:55:28.736Z,8.73
2023-01-18T19:57:58.274Z,8.50
2023-01-18T20:00:25.962Z,7.50
2023-01-18T20:02:53.238Z,7.53
2023-01-18T20:05:20.449Z,7.68
2023-01-18T20:07:47.198Z,8.02
2023-01-18T20:10:14.080Z,8.75
2023-01-18T20:12:41.035Z,7.85
2023-01-18T20:15:08.126Z,7.78
2023-01-18T20:17:34.826Z,6.88
2023-01-18T20:20:01.557Z,7.80
2023-01-18T20:22:28.277Z,8.68
2023-01-18T20:24:55.028Z,7.47
2023-01-18T20:27:21.906Z,8.18
2023-01-18T20:29:48.864Z,8.82
2023-01-18T20:32:17.407Z,6.80
2023-01-18T20:34:46.767Z,7.75
2023-01-18T20:37:15.232Z,7.35
2023-01-18T20:39:42.431Z,7.57
2023-01-18T20:42:09.257Z,7.00
2023-01-18T20:44:36.040Z,7.53
2023-01-18T20:47:03.521Z,7.30
2023-01-18T20:49:37.777Z,7.25
2023-01-18T20:52:06.604Z,7.03
2023-01-18T20:54:34.888Z,7.45
2023-01-18T20:57:03.445Z,7.60
2023-01-18T20:59:30.137Z,6.53
2023-01-18T21:01:56.980Z,7.10
2023-01-18T21:04:24.735Z,7.35
2023-01-18T21:06:51.431Z,6.82
2023-01-18T21:09:18.296Z,7.70
2023-01-18T21:11:44.991Z,7.20
2023-01-18T21:14:12.727Z,6.93
2023-01-18T21:16:39.570Z,6.85
2023-01-18T21:19:06.337Z,7.80
2023-01-18T21:21:33.343Z,8.57
2023-01-18T21:24:00.194Z,7.35
2023-01-18T21:26:26.955Z,7.53
2023-01-18T21:28:54.168Z,6.28
2023-01-18T21:31:21.451Z,7.40
2023-01-18T21:33:48.201Z,7.85
2023-01-18T21:36:20.180Z,7.55
2023-01-18T21:38:46.863Z,7.03
2023-01-18T21:41:32.225Z,6.97
2023-01-18T21:44:17.675Z,7.25
2023-01-18T21:46:46.588Z,7.63
2023-01-18T21:49:52.067Z,7.85
2023-01-18T21:52:39.508Z,6.90
2023-01-18T21:55:06.294Z,7.60
2023-01-18T21:57:33.016Z,7.75
2023-01-18T21:59:59.740Z,6.70
2023-01-18T22:02:26.928Z,6.80
2023-01-18T22:05:00.063Z,6.95
2023-01-18T22:07:28.205Z,7.05
2023-01-18T22:10:04.479Z,7.47
2023-01-18T22:12:33.351Z,7.65
2023-01-18T22:15:01.923Z,8.07
2023-01-18T22:17:28.869Z,8.30
2023-01-18T22:19:55.774Z,6.82
2023-01-18T22:22:22.601Z,7.53
2023-01-18T22:24:49.283Z,7.25
2023-01-18T22:27:15.999Z,6.78
2023-01-18T22:29:42.780Z,8.07
2023-01-18T22:32:09.663Z,7.57
2023-01-18T22:34:36.383Z,7.55
2023-01-18T22:37:03.462Z,7.78
2023-01-18T22:39:30.138Z,6.95
2023-01-18T22:41:57.052Z,7.40
2023-01-18T22:44:23.952Z,8.02
2023-01-18T22:46:50.711Z,6.47
2023-01-18T22:49:17.478Z,7.40
2023-01-18T22:51:44.406Z,7.18
2023-01-18T22:54:11.285Z,8.32
2023-01-18T22:56:37.940Z,7.32
2023-01-18T22:59:04.619Z,7.35
2023-01-18T23:01:32.587Z,7.82
2023-01-18T23:04:01.912Z,7.38
2023-01-18T23:06:41.937Z,7.28
2023-01-18T23:09:09.906Z,6.30
2023-01-18T23:11:37.114Z,6.70
2023-01-18T23:14:22.654Z,7.57
2023-01-18T23:17:07.776Z,7.57
2023-01-18T23:19:34.469Z,7.47
2023-01-18T23:22:06.853Z,7.28
2023-01-18T23:24:35.644Z,7.63
2023-01-18T23:27:04.254Z,8.05
2023-01-18T23:29:30.977Z,6.80
2023-01-18T23:31:58.437Z,7.05
2023-01-18T23:34:25.764Z,7.32
2023-01-18T23:36:52.851Z,7.32
2023-01-18T23:39:38.249Z,6.93
2023-01-18T23:42:23.623Z,7.80
2023-01-18T23:45:08.968Z,7.65
2023-01-18T23:47:54.936Z,7.78
2023-01-18T23:50:40.492Z,7.32
2023-01-18T23:53:30.371Z,7.30
2023-01-18T23:55:57.526Z,6.25
2023-01-18T23:58:24.701Z,6.18
